Time;durP1;ratioP1;P1;durP2;ratioP2;P2;SDS_P1;SDS_P2;PMS_P1;PMS_P2;Temp;Humidity;BMP_temperature;BMP_pressure;BME280_temperature;BME280_humidity;BME280_pressure;Samples;Min_cycle;Max_cycle;Signal;HPM_P1;HPM_P2
2023/06/17 00:00:32;;;;;;;0.90;0.40;;;;;;;29.59;35.44;99929.78;7392473;19;20015;-63
2023/06/17 00:02:58;;;;;;;0.43;0.30;;;;;;;29.92;35.21;99933.66;7397487;19;20022;-63
2023/06/17 00:05:24;;;;;;;1.35;0.20;;;;;;;29.89;35.44;99929.13;7392066;19;20010;-63
2023/06/17 00:07:52;;;;;;;2.50;0.68;;;;;;;29.91;35.55;99940.75;7394414;19;20371;-63
2023/06/17 00:10:18;;;;;;;0.85;0.30;;;;;;;29.92;35.47;99927.94;7395344;19;20401;-63
2023/06/17 00:12:44;;;;;;;0.52;0.30;;;;;;;29.90;36.16;99929.91;7390544;19;20014;-62
2023/06/17 00:15:12;;;;;;;0.30;0.30;;;;;;;29.71;35.99;99936.44;7396270;19;20078;-63
2023/06/17 00:17:44;;;;;;;1.17;0.47;;;;;;;29.76;36.08;99923.88;7394421;19;20006;-63
2023/06/17 00:20:11;;;;;;;1.05;0.50;;;;;;;29.74;36.15;99923.75;7394671;19;20011;-63
2023/06/17 00:22:38;;;;;;;2.08;0.30;;;;;;;29.65;36.35;99933.09;7394266;19;20482;-62
2023/06/17 00:25:06;;;;;;;1.48;0.70;;;;;;;29.52;36.53;99930.72;7394022;19;20015;-62
2023/06/17 00:27:32;;;;;;;1.25;0.43;;;;;;;29.62;36.74;99928.59;7398211;19;20014;-62
2023/06/17 00:29:59;;;;;;;2.50;1.10;;;;;;;29.59;36.79;99924.06;7393914;19;20014;-62
2023/06/17 00:32:27;;;;;;;1.05;0.65;;;;;;;29.52;36.82;99921.34;7396278;19;20010;-62
2023/06/17 00:34:54;;;;;;;2.75;0.32;;;;;;;29.55;36.99;99917.25;7392588;19;20560;-63
2023/06/17 00:37:20;;;;;;;0.43;0.40;;;;;;;29.55;36.92;99912.28;7390058;19;20018;-62
2023/06/17 00:39:47;;;;;;;1.58;0.73;;;;;;;29.51;37.15;99917.72;7398024;19;20363;-63
2023/06/17 00:42:13;;;;;;;2.42;0.40;;;;;;;29.40;36.59;99918.34;7392689;19;20463;-61
2023/06/17 00:44:40;;;;;;;1.48;0.98;;;;;;;29.27;37.44;99921.69;7394230;19;20416;-61
2023/06/17 00:47:08;;;;;;;2.58;0.65;;;;;;;29.21;37.21;99913.41;7395628;19;20007;-61
2023/06/17 00:49:36;;;;;;;0.38;0.38;;;;;;;29.26;37.57;99914.41;7402891;19;20041;-61
2023/06/17 00:52:04;;;;;;;1.08;0.20;;;;;;;29.21;37.32;99912.63;7402412;19;20034;-60
2023/06/17 00:54:38;;;;;;;0.30;0.20;;;;;;;29.24;37.40;99900.69;7399354;19;20013;-61
2023/06/17 00:57:09;;;;;;;0.50;0.32;;;;;;;29.23;37.51;99902.06;7398175;19;20010;-61
2023/06/17 00:59:41;;;;;;;0.45;0.20;;;;;;;29.25;37.49;99901.44;7399440;19;20007;-61
2023/06/17 01:02:09;;;;;;;3.95;0.70;;;;;;;29.18;37.24;99896.63;7401372;19;20010;-61
2023/06/17 01:04:43;;;;;;;0.70;0.38;;;;;;;29.02;37.73;99895.41;7399227;19;20007;-61
2023/06/17 01:07:40;;;;;;;1.55;1.00;;;;;;;28.97;37.76;99899.31;7398262;19;20498;-61
2023/06/17 01:10:12;;;;;;;1.45;0.32;;;;;;;29.04;37.51;99881.22;7400349;19;20031;-61
2023/06/17 01:12:41;;;;;;;2.17;0.77;;;;;;;29.03;37.70;99888.28;7399783;19;20021;-61
2023/06/17 01:15:10;;;;;;;1.48;0.50;;;;;;;29.02;38.10;99878.19;7401622;19;20340;-61
2023/06/17 01:17:37;;;;;;;0.20;0.17;;;;;;;28.98;37.93;99877.88;7397530;19;20082;-61
2023/06/17 01:20:06;;;;;;;2.03;0.45;;;;;;;28.94;37.66;99871.84;7398599;19;20010;-61
2023/06/17 01:22:34;;;;;;;1.48;0.80;;;;;;;28.88;38.03;99877.88;7397900;19;20010;-60
2023/06/17 01:25:02;;;;;;;0.20;0.20;;;;;;;28.86;38.05;99874.88;7400439;19;20034;-61
2023/06/17 01:27:29;;;;;;;0.90;0.20;;;;;;;28.81;38.07;99869.44;7399358;19;20043;-61
2023/06/17 01:29:55;;;;;;;0.60;0.43;;;;;;;28.81;38.20;99872.28;7399304;19;20105;-61
2023/06/17 01:32:22;;;;;;;0.28;0.28;;;;;;;28.84;38.29;99876.84;7401742;19;20007;-61
2023/06/17 01:35:02;;;;;;;0.38;0.35;;;;;;;28.90;37.95;99885.88;7398106;19;20017;-61
2023/06/17 01:37:32;;;;;;;2.55;0.95;;;;;;;28.93;37.76;99888.31;7397262;19;20014;-61
2023/06/17 01:40:00;;;;;;;0.50;0.50;;;;;;;28.95;37.78;99881.97;7397624;19;20014;-62
2023/06/17 01:42:31;;;;;;;0.57;0.40;;;;;;;28.97;37.73;99884.97;7396444;19;20494;-61
2023/06/17 01:44:59;;;;;;;;;;;;;;;29.00;37.52;99881.66;7395254;19;20010;-61
2023/06/17 01:47:25;;;;;;;0.90;0.40;;;;;;;28.96;38.19;99880.59;7398190;19;20331;-61
2023/06/17 01:49:52;;;;;;;1.13;0.55;;;;;;;28.88;37.91;99874.25;7402382;19;20011;-60
2023/06/17 01:52:18;;;;;;;4.20;1.17;;;;;;;28.81;37.99;99869.44;7397609;19;20014;-61
2023/06/17 01:54:44;;;;;;;1.95;0.50;;;;;;;28.71;38.43;99871.53;7399986;19;20017;-61
2023/06/17 01:57:11;;;;;;;0.70;0.55;;;;;;;28.63;38.69;99868.06;7395478;19;20011;-61
2023/06/17 01:59:37;;;;;;;0.30;0.30;;;;;;;28.58;38.09;99863.38;7395173;19;20034;-61
2023/06/17 02:02:03;;;;;;;12.73;0.50;;;;;;;28.59;38.16;99859.19;7396391;19;20043;-60
2023/06/17 02:04:29;;;;;;;1.98;0.63;;;;;;;28.47;38.30;99854.00;7397570;19;20011;-61
2023/06/17 02:06:57;;;;;;;0.57;0.57;;;;;;;28.50;38.41;99847.06;7396937;19;20022;-61
2023/06/17 02:09:23;;;;;;;0.82;0.40;;;;;;;28.38;38.59;99840.41;7400403;19;20373;-61
2023/06/17 02:11:49;;;;;;;2.47;0.73;;;;;;;28.25;38.83;99837.97;7397893;19;20367;-61
2023/06/17 02:14:16;;;;;;;0.75;0.63;;;;;;;28.17;39.57;99842.31;7401393;19;20010;-61
2023/06/17 02:16:49;;;;;;;0.85;0.17;;;;;;;28.15;39.26;99840.06;7394769;19;20011;-61
2023/06/17 02:19:15;;;;;;;1.30;0.80;;;;;;;28.41;39.20;99832.72;7397210;19;20014;-61
2023/06/17 02:21:42;;;;;;;1.67;0.65;;;;;;;28.58;38.92;99837.59;7397002;19;20011;-52
2023/06/17 02:24:10;;;;;;;2.03;0.60;;;;;;;28.56;38.98;99828.81;7396021;19;20014;-52
2023/06/17 02:26:39;;;;;;;0.50;0.30;;;;;;;28.53;38.67;99828.66;7398867;19;20006;-52
2023/06/17 02:29:05;;;;;;;0.60;0.60;;;;;;;28.53;38.71;99827.91;7394044;19;20022;-81
2023/06/17 02:31:32;;;;;;;3.00;1.40;;;;;;;28.47;39.04;99816.75;7391672;19;20025;-83
2023/06/17 02:34:00;;;;;;;0.77;0.57;;;;;;;28.44;38.58;99825.78;7394223;19;20022;-83
2023/06/17 02:36:26;;;;;;;3.55;0.68;;;;;;;28.41;38.78;99822.00;7394884;19;20014;-81
2023/06/17 02:38:53;;;;;;;0.95;0.40;;;;;;;28.41;38.83;99815.53;7397310;19;20350;-81
2023/06/17 02:41:20;;;;;;;4.95;0.90;;;;;;;28.35;38.50;99815.81;7392680;19;20022;-81
2023/06/17 02:43:46;;;;;;;3.08;0.75;;;;;;;28.38;38.77;99826.09;7393421;19;20354;-81
2023/06/17 02:46:12;;;;;;;7.70;0.40;;;;;;;28.44;38.96;99820.03;7393648;19;20018;-81
2023/06/17 02:48:38;;;;;;;1.52;0.75;;;;;;;28.41;39.26;99809.81;7395789;19;20045;-81
2023/06/17 02:51:04;;;;;;;0.80;0.38;;;;;;;27.97;39.48;99807.16;7394565;19;20018;-81
2023/06/17 02:53:30;;;;;;;1.65;0.68;;;;;;;28.02;39.58;99806.13;7392947;19;20015;-81
2023/06/17 02:55:58;;;;;;;1.10;0.70;;;;;;;28.15;39.12;99811.44;7391712;19;20015;-80
2023/06/17 02:58:25;;;;;;;0.40;0.22;;;;;;;28.26;39.18;99810.81;7395287;19;20388;-81
2023/06/17 03:00:55;;;;;;;0.93;0.65;;;;;;;28.37;38.62;99801.66;7396604;19;20500;-81
2023/06/17 03:03:26;;;;;;;1.55;0.60;;;;;;;28.32;38.97;99807.69;7397630;19;20546;-81
2023/06/17 03:05:52;;;;;;;0.82;0.43;;;;;;;28.34;38.93;99805.72;7391461;19;20345;-81
2023/06/17 03:08:19;;;;;;;6.32;1.05;;;;;;;28.34;39.03;99802.88;7394871;19;20050;-82
2023/06/17 03:10:45;;;;;;;4.72;0.93;;;;;;;28.28;38.38;99808.13;7392544;19;20022;-81
2023/06/17 03:13:13;;;;;;;9.98;0.85;;;;;;;28.28;38.73;99799.53;7391106;19;20035;-81
2023/06/17 03:15:43;;;;;;;0.80;0.80;;;;;;;28.14;38.37;99789.84;7392269;19;20014;-81
2023/06/17 03:18:09;;;;;;;1.27;0.52;;;;;;;28.05;38.88;99787.72;7396682;19;20019;-81
2023/06/17 03:20:38;;;;;;;0.60;0.32;;;;;;;27.78;38.96;99792.75;7393555;19;20370;-81
2023/06/17 03:23:04;;;;;;;3.60;0.75;;;;;;;27.67;39.29;99784.72;7392399;19;20393;-81
2023/06/17 03:25:31;;;;;;;2.58;0.50;;;;;;;27.61;39.60;99781.41;7392581;19;20078;-81
2023/06/17 03:28:00;;;;;;;1.73;0.40;;;;;;;27.58;40.00;99774.75;7395156;19;20014;-81
2023/06/17 03:30:28;;;;;;;1.67;0.88;;;;;;;27.50;40.20;99765.56;7391728;19;20015;-81
2023/06/17 03:32:57;;;;;;;0.70;0.70;;;;;;;27.28;40.64;99771.56;7396926;19;20007;-81
2023/06/17 03:35:26;;;;;;;4.30;0.63;;;;;;;27.46;40.09;99775.91;7392375;19;20026;-81
2023/06/17 03:37:52;;;;;;;1.27;0.63;;;;;;;27.45;40.39;99768.69;7393444;19;20006;-81
2023/06/17 03:40:19;;;;;;;2.30;1.08;;;;;;;27.44;40.23;99778.63;7393472;19;20023;-81
2023/06/17 03:42:46;;;;;;;2.15;0.68;;;;;;;27.49;40.17;99772.63;7392161;19;20011;-81
2023/06/17 03:45:12;;;;;;;4.82;0.98;;;;;;;27.45;40.07;99778.03;7391033;19;20365;-81
2023/06/17 03:47:39;;;;;;;1.63;0.68;;;;;;;27.47;40.07;99778.19;7393350;19;20695;-81
2023/06/17 03:50:06;;;;;;;1.02;0.63;;;;;;;27.52;40.37;99780.00;7390569;19;20469;-81
2023/06/17 03:52:32;;;;;;;1.65;1.00;;;;;;;27.52;40.05;99779.25;7391698;19;20015;-81
2023/06/17 03:54:59;;;;;;;1.65;1.08;;;;;;;27.43;39.95;99782.81;7390145;19;20021;-81
2023/06/17 03:57:26;;;;;;;0.65;0.45;;;;;;;27.38;39.95;99778.13;7391785;19;20038;-81
2023/06/17 03:59:52;;;;;;;2.72;0.73;;;;;;;27.32;40.33;99789.81;7391101;19;20015;-80
2023/06/17 04:02:18;;;;;;;2.00;0.88;;;;;;;27.27;40.52;99785.13;7394409;19;20014;-81
2023/06/17 04:04:44;;;;;;;0.75;0.65;;;;;;;27.37;40.23;99785.22;7391186;19;20015;-81
2023/06/17 04:07:10;;;;;;;0.68;0.40;;;;;;;27.38;40.78;99780.97;7390564;19;20018;-81
2023/06/17 04:09:37;;;;;;;0.82;0.40;;;;;;;27.33;40.62;99782.72;7394827;19;20014;-81
2023/06/17 04:14:58;;;;;;;4.53;1.13;;;;;;;27.44;40.18;99770.78;7394144;19;20010;-51
2023/06/17 04:17:25;;;;;;;0.50;0.40;;;;;;;27.50;40.25;99770.50;7392254;19;20491;-51
2023/06/17 04:19:54;;;;;;;1.38;1.00;;;;;;;27.65;40.13;99776.00;7392586;19;20020;-50
2023/06/17 04:22:20;;;;;;;1.17;0.60;;;;;;;27.75;40.77;99782.50;7391154;19;20027;-51
2023/06/17 04:24:47;;;;;;;1.50;0.30;;;;;;;27.97;40.46;99774.88;7393960;19;20016;-51
2023/06/17 04:27:13;;;;;;;3.42;0.50;;;;;;;27.90;40.61;99772.88;7392467;19;20010;-51
2023/06/17 04:29:39;;;;;;;1.15;0.40;;;;;;;27.94;40.55;99785.41;7397266;19;20025;-52
2023/06/17 04:32:10;;;;;;;3.38;0.93;;;;;;;27.85;40.88;99774.72;7394491;19;20014;-51
2023/06/17 04:34:38;;;;;;;1.33;0.90;;;;;;;28.06;40.43;99763.47;7392370;19;20027;-51
2023/06/17 04:37:04;;;;;;;3.35;0.50;;;;;;;27.85;41.11;99776.81;7390381;19;20010;-51
2023/06/17 04:39:34;;;;;;;0.65;0.15;;;;;;;27.80;40.95;99770.00;7398145;19;20010;-51
2023/06/17 04:42:00;;;;;;;0.60;0.60;;;;;;;28.05;41.16;99773.41;7391817;19;20015;-50
2023/06/17 04:44:31;;;;;;;2.00;0.60;;;;;;;28.06;40.76;99763.47;7392062;19;20019;-50
2023/06/17 04:46:59;;;;;;;3.08;0.85;;;;;;;28.16;41.06;99755.66;7391754;19;20017;-51
2023/06/17 04:49:26;;;;;;;0.40;0.40;;;;;;;28.20;41.11;99761.69;7395435;19;20010;-50
2023/06/17 04:51:53;;;;;;;1.05;0.35;;;;;;;28.18;41.53;99758.66;7393719;19;20014;-51
2023/06/17 04:54:19;;;;;;;1.75;0.93;;;;;;;28.23;41.54;99759.72;7391627;19;20098;-51
2023/06/17 04:56:45;;;;;;;4.47;1.42;;;;;;;28.30;41.20;99765.31;7394862;19;20015;-51
2023/06/17 04:59:12;;;;;;;1.38;0.65;;;;;;;28.39;41.23;99766.69;7395059;19;20006;-51
2023/06/17 05:01:38;;;;;;;0.98;0.47;;;;;;;28.51;41.27;99756.09;7394750;19;20014;-51
2023/06/17 05:04:05;;;;;;;0.90;0.50;;;;;;;28.29;41.70;99763.78;7391804;19;20391;-51
2023/06/17 05:06:31;;;;;;;0.95;0.50;;;;;;;28.56;41.45;99757.94;7391387;19;20337;-51
2023/06/17 05:08:58;;;;;;;3.50;0.85;;;;;;;29.06;41.04;99758.75;7394458;19;20010;-51
2023/06/17 05:11:26;;;;;;;6.22;1.65;;;;;;;29.19;41.15;99757.56;7391639;19;20018;-51
2023/06/17 05:13:52;;;;;;;0.50;0.47;;;;;;;28.97;41.44;99762.44;7391773;19;20007;-51
2023/06/17 05:16:18;;;;;;;0.52;0.32;;;;;;;29.01;42.22;99761.97;7392007;19;20344;-52
2023/06/17 05:18:44;;;;;;;2.75;0.68;;;;;;;29.07;42.11;99765.25;7395112;19;20031;-51
2023/06/17 05:21:11;;;;;;;2.25;0.57;;;;;;;29.16;41.93;99761.66;7391118;19;20019;-51
2023/06/17 05:23:37;;;;;;;2.05;0.40;;;;;;;29.20;42.19;99759.06;7390937;19;20355;-52
2023/06/17 05:26:04;;;;;;;0.75;0.50;;;;;;;29.37;42.25;99764.59;7390487;19;20344;-52
2023/06/17 05:28:31;;;;;;;0.35;0.30;;;;;;;29.54;41.85;99761.50;7392981;19;20010;-52
2023/06/17 05:30:58;;;;;;;0.28;0.28;;;;;;;29.69;42.01;99752.50;7391651;19;20015;-52
2023/06/17 05:33:25;;;;;;;2.78;0.95;;;;;;;29.87;41.71;99755.94;7391130;19;20011;-52
2023/06/17 05:35:51;;;;;;;1.75;0.35;;;;;;;30.37;41.45;99755.75;7395233;19;20455;-52
2023/06/17 05:38:17;;;;;;;0.88;0.47;;;;;;;30.69;41.10;99752.91;7398834;19;20011;-52
2023/06/17 05:40:44;;;;;;;2.97;0.68;;;;;;;30.97;41.27;99753.28;7397552;19;20018;-52
2023/06/17 05:43:10;;;;;;;2.17;0.63;;;;;;;31.13;40.92;99743.56;7396745;19;20022;-52
2023/06/17 05:45:36;;;;;;;1.33;1.00;;;;;;;31.34;41.14;99751.31;7397787;19;20401;-52
2023/06/17 05:48:03;;;;;;;1.80;0.52;;;;;;;31.55;40.91;99741.88;7398829;19;20070;-52
2023/06/17 05:50:30;;;;;;;2.03;0.55;;;;;;;31.68;40.57;99738.34;7397975;19;20010;-52
2023/06/17 05:52:58;;;;;;;2.38;0.73;;;;;;;32.21;39.46;99734.41;7397616;19;20007;-52
2023/06/17 05:55:24;;;;;;;1.02;0.57;;;;;;;32.29;39.65;99740.66;7397165;19;20017;-52
2023/06/17 05:57:52;;;;;;;2.17;0.50;;;;;;;32.01;39.64;99733.22;7396360;19;20014;-52
2023/06/17 06:00:18;;;;;;;3.15;0.90;;;;;;;31.70;40.28;99739.25;7396642;19;20499;-52
2023/06/17 06:02:45;;;;;;;1.40;0.40;;;;;;;32.03;39.79;99725.41;7402481;19;20487;-51
2023/06/17 06:05:11;;;;;;;6.85;0.70;;;;;;;32.16;39.58;99732.69;7397398;19;20002;-52
2023/06/17 06:07:38;;;;;;;3.53;0.88;;;;;;;32.18;40.15;99735.69;7398831;19;20014;-51
2023/06/17 06:10:06;;;;;;;1.50;0.40;;;;;;;32.29;40.38;99740.66;7403480;19;20031;-51
2023/06/17 06:12:32;;;;;;;1.52;0.63;;;;;;;32.41;39.88;99741.38;7396932;19;20045;-51
2023/06/17 06:14:59;;;;;;;1.85;0.40;;;;;;;32.25;39.52;99746.16;7396358;19;20014;-51
2023/06/17 06:17:25;;;;;;;1.80;0.47;;;;;;;32.43;39.43;99747.25;7393930;19;20011;-51
2023/06/17 06:19:51;;;;;;;1.05;0.30;;;;;;;32.80;38.42;99753.75;7403416;19;20010;-51
2023/06/17 06:22:18;;;;;;;0.28;0.20;;;;;;;33.27;37.81;99754.25;7396797;19;20007;-51
2023/06/17 06:24:45;;;;;;;0.80;0.20;;;;;;;33.44;37.24;99750.13;7396396;19;20030;-51
2023/06/17 06:27:11;;;;;;;1.75;0.35;;;;;;;33.37;37.25;99756.97;7396719;19;20017;-51
2023/06/17 06:29:39;;;;;;;3.70;0.60;;;;;;;33.59;37.07;99752.44;7400525;19;20018;-51
2023/06/17 06:32:06;;;;;;;3.20;0.35;;;;;;;33.59;35.37;99750.25;7398534;19;20066;-51
2023/06/17 06:34:32;;;;;;;0.30;0.15;;;;;;;33.39;35.22;99754.19;7395714;19;20435;-51
2023/06/17 06:36:59;;;;;;;3.10;0.77;;;;;;;33.09;36.15;99752.50;7394114;19;20021;-51
2023/06/17 06:39:26;;;;;;;0.20;0.10;;;;;;;32.94;36.25;99753.06;7399061;19;20014;-56
2023/06/17 06:42:02;;;;;;;0.95;0.40;;;;;;;32.95;37.21;99751.66;7394901;19;20515;-56
2023/06/17 06:44:46;;;;;;;1.10;0.60;;;;;;;33.58;36.44;99759.56;7391805;19;20010;-54
2023/06/17 06:47:16;;;;;;;0.35;0.30;;;;;;;32.90;36.53;99765.88;7392162;19;20049;-81
2023/06/17 06:49:42;;;;;;;3.35;0.75;;;;;;;33.62;35.70;99765.56;7395409;19;20076;-80
2023/06/17 06:52:08;;;;;;;0.57;0.10;;;;;;;32.92;36.26;99768.88;7390823;19;20018;-80
2023/06/17 06:54:34;;;;;;;0.98;0.25;;;;;;;32.79;36.79;99760.91;7392813;19;20015;-80
2023/06/17 06:57:01;;;;;;;8.30;0.30;;;;;;;32.94;36.33;99765.38;7391427;19;20369;-80
2023/06/17 06:59:27;;;;;;;0.40;0.40;;;;;;;33.29;36.18;99762.25;7396405;19;20010;-79
2023/06/17 07:01:53;;;;;;;2.33;0.63;;;;;;;33.53;36.01;99764.38;7393072;19;20022;-80
2023/06/17 07:04:23;;;;;;;1.52;0.50;;;;;;;33.30;36.42;99769.56;7392952;19;20022;-80
2023/06/17 07:06:53;;;;;;;1.35;0.20;;;;;;;33.66;35.35;99768.66;7393064;19;20074;-80
2023/06/17 07:09:24;;;;;;;1.67;0.55;;;;;;;33.10;36.62;99771.31;7395841;19;20086;-80
2023/06/17 07:11:51;;;;;;;5.57;0.40;;;;;;;25.05;50.17;99785.56;7390960;19;20022;-80
2023/06/17 07:14:17;;;;;;;0.57;0.35;;;;;;;29.85;45.31;99773.78;7392618;19;20014;-80
2023/06/17 07:16:44;;;;;;;0.73;0.32;;;;;;;32.24;39.64;99773.50;7390127;19;20035;-80
2023/06/17 07:19:11;;;;;;;2.88;0.60;;;;;;;32.71;38.44;99772.00;7395199;19;20018;-79
2023/06/17 07:21:37;;;;;;;1.30;0.40;;;;;;;32.73;38.47;99771.34;7391508;19;20011;-79
2023/06/17 07:24:04;;;;;;;1.27;0.15;;;;;;;32.75;38.33;99775.09;7392124;19;20487;-77
2023/06/17 07:26:31;;;;;;;4.68;1.20;;;;;;;32.91;38.05;99778.16;7392169;19;20708;-80
2023/06/17 07:29:00;;;;;;;1.00;0.20;;;;;;;33.19;36.13;99776.16;7396274;19;20007;-89
2023/06/17 07:31:28;;;;;;;1.50;0.30;;;;;;;33.07;34.73;99776.22;7394000;19;20029;-89
2023/06/17 07:33:55;;;;;;;0.17;0.10;;;;;;;33.12;34.58;99768.53;7397565;19;20074;-89
2023/06/17 07:36:21;;;;;;;2.03;0.47;;;;;;;32.41;35.03;99772.31;7392958;19;20031;-89
2023/06/17 07:38:47;;;;;;;1.92;0.68;;;;;;;27.65;40.83;99776.00;7395877;19;20010;-89
2023/06/17 07:41:13;;;;;;;0.43;0.10;;;;;;;31.86;35.24;99780.53;7395309;19;20010;-89
2023/06/17 07:43:39;;;;;;;0.57;0.32;;;;;;;31.98;35.21;99775.56;7393548;19;20111;-89
2023/06/17 07:46:06;;;;;;;2.22;1.10;;;;;;;31.98;34.18;99771.91;7393404;19;20021;-90
2023/06/17 07:48:32;;;;;;;3.35;0.17;;;;;;;32.47;34.22;99773.47;7395268;19;20042;-91
2023/06/17 07:50:58;;;;;;;0.47;0.25;;;;;;;32.76;32.72;99767.22;7395877;19;20025;-91
2023/06/17 07:53:24;;;;;;;3.40;0.85;;;;;;;32.55;32.12;99767.44;7393868;19;20294;-92
2023/06/17 07:55:52;;;;;;;1.63;0.20;;;;;;;32.66;32.91;99770.25;7394427;19;20022;-92
2023/06/17 07:58:18;;;;;;;2.38;0.63;;;;;;;32.67;32.60;99773.88;7394561;19;20006;-93
2023/06/17 08:00:45;;;;;;;0.75;0.30;;;;;;;32.24;32.63;99770.63;7394208;19;20011;-92
2023/06/17 08:03:12;;;;;;;0.35;0.10;;;;;;;31.52;34.46;99783.41;7397574;19;20400;-91
2023/06/17 08:05:38;;;;;;;0.47;0.20;;;;;;;32.74;33.56;99767.84;7393443;19;20027;-90
2023/06/17 08:08:04;;;;;;;1.02;0.30;;;;;;;32.83;33.92;99769.06;7394156;19;20018;-90
2023/06/17 08:10:30;;;;;;;3.50;0.10;;;;;;;32.32;32.91;99762.44;7392749;19;20014;-90
2023/06/17 08:12:56;;;;;;;1.00;0.20;;;;;;;32.67;32.36;99762.34;7393595;19;20011;-90
2023/06/17 08:15:22;;;;;;;0.68;0.28;;;;;;;33.31;32.35;99757.34;7393512;19;20070;-89
2023/06/17 08:17:48;;;;;;;0.70;0.20;;;;;;;33.77;31.61;99759.16;7391109;19;20137;-89
2023/06/17 08:20:16;;;;;;;1.33;0.10;;;;;;;32.66;31.97;99761.59;7394182;19;20006;-90
2023/06/17 08:22:42;;;;;;;5.35;1.13;;;;;;;33.21;32.11;99761.81;7392988;19;20010;-90
2023/06/17 08:25:09;;;;;;;0.77;0.10;;;;;;;33.32;32.43;99767.53;7391990;19;20048;-90
2023/06/17 08:27:37;;;;;;;2.10;0.20;;;;;;;33.52;32.45;99765.03;7393362;19;20019;-90
2023/06/17 08:30:04;;;;;;;4.45;0.30;;;;;;;33.32;32.42;99767.53;7397945;19;20010;-90
2023/06/17 08:32:31;;;;;;;2.28;0.45;;;;;;;32.96;32.23;99768.38;7393091;19;20045;-91
2023/06/17 08:35:00;;;;;;;2.38;0.20;;;;;;;33.27;32.82;99765.03;7392425;19;20404;-90
2023/06/17 08:37:26;;;;;;;0.85;0.10;;;;;;;33.25;32.82;99767.81;7390888;19;20014;-89
2023/06/17 08:39:52;;;;;;;0.60;0.60;;;;;;;32.96;33.26;99758.94;7396583;19;20101;-90
2023/06/17 08:42:18;;;;;;;1.00;0.30;;;;;;;31.88;33.47;99759.75;7392139;19;20028;-90
2023/06/17 08:44:46;;;;;;;1.55;0.60;;;;;;;29.58;37.83;99761.06;7392618;19;20105;-90
2023/06/17 08:47:15;;;;;;;0.45;0.10;;;;;;;26.97;41.22;99757.72;7393946;19;20006;-89
2023/06/17 08:49:45;;;;;;;0.40;0.20;;;;;;;29.63;37.12;99757.84;7397385;19;20461;-89
2023/06/17 08:52:13;;;;;;;0.15;0.15;;;;;;;30.56;36.53;99759.22;7390987;19;20086;-89
2023/06/17 08:54:40;;;;;;;0.68;0.60;;;;;;;29.83;36.08;99773.63;7392378;19;20556;-89
2023/06/17 08:57:12;;;;;;;7.85;0.30;;;;;;;30.58;35.48;99761.50;7392061;19;20039;-88
2023/06/17 08:59:39;;;;;;;0.57;0.10;;;;;;;30.87;36.05;99764.88;7395439;19;20011;-89
2023/06/17 09:02:06;;;;;;;1.42;0.22;;;;;;;31.08;34.62;99764.06;7392919;19;20468;-89
2023/06/17 09:04:33;;;;;;;0.28;0.10;;;;;;;31.10;33.83;99775.72;7391017;19;20014;-89
2023/06/17 09:07:00;;;;;;;1.13;0.13;;;;;;;31.06;34.89;99764.66;7391137;19;20035;-90
2023/06/17 09:09:26;;;;;;;0.73;0.38;;;;;;;30.98;34.17;99769.16;7396679;19;20352;-90
2023/06/17 09:11:52;;;;;;;5.05;0.40;;;;;;;30.92;34.82;99777.41;7397633;19;20019;-90
2023/06/17 09:14:21;;;;;;;3.10;0.65;;;;;;;31.00;34.94;99770.03;7401466;19;20045;-91
2023/06/17 09:16:49;;;;;;;1.55;0.20;;;;;;;31.15;35.23;99774.56;7399465;19;20018;-90
2023/06/17 09:19:15;;;;;;;3.70;0.40;;;;;;;31.43;35.24;99774.28;7402989;19;20014;-90
2023/06/17 09:21:45;;;;;;;0.98;0.40;;;;;;;31.32;34.35;99769.22;7397398;19;20112;-90
2023/06/17 09:24:12;;;;;;;1.55;0.38;;;;;;;30.98;34.75;99775.66;7400051;19;20042;-88
2023/06/17 09:26:43;;;;;;;2.00;0.52;;;;;;;30.56;35.04;99779.34;7399027;19;20019;-91
2023/06/17 09:29:11;;;;;;;2.53;0.35;;;;;;;30.75;35.15;99781.31;7403262;19;20089;-94
2023/06/17 09:31:48;;;;;;;0.75;0.20;;;;;;;30.65;35.45;99772.00;7397658;19;20010;-90
2023/06/17 09:34:15;;;;;;;3.45;0.35;;;;;;;30.38;36.05;99772.41;7399859;19;20014;-93
2023/06/17 09:36:41;;;;;;;2.83;0.98;;;;;;;30.55;36.52;99762.72;7397845;19;20022;-93
2023/06/17 09:39:12;;;;;;;8.55;0.88;;;;;;;30.32;37.35;99768.38;7403369;19;20022;-93
2023/06/17 09:41:43;;;;;;;2.83;0.32;;;;;;;27.60;39.80;99769.19;7398298;19;20032;-93
2023/06/17 09:44:11;;;;;;;1.02;0.10;;;;;;;25.84;43.64;99769.59;7399315;19;20018;-93
2023/06/17 09:46:39;;;;;;;2.72;0.10;;;;;;;25.68;47.24;99765.38;7401088;19;20039;-93
2023/06/17 09:49:11;;;;;;;1.55;0.85;;;;;;;22.52;67.17;99774.50;7404882;19;20086;-92
2023/06/17 09:51:39;;;;;;;3.40;0.30;;;;;;;19.97;100.00;99779.03;7400111;19;20018;-94
2023/06/17 09:54:06;;;;;;;0.85;0.30;;;;;;;24.63;92.00;99773.19;7405202;19;20103;-93
2023/06/17 09:56:34;;;;;;;0.35;0.15;;;;;;;22.69;86.56;99771.22;7403647;19;20014;-95
2023/06/17 09:59:01;;;;;;;3.40;0.55;;;;;;;21.56;99.24;99787.44;7410578;19;20014;-93
2023/06/17 10:01:32;;;;;;;2.33;0.50;;;;;;;28.85;76.72;99772.25;7410300;19;20014;-91
2023/06/17 10:04:02;;;;;;;4.05;0.43;;;;;;;26.76;62.80;99783.16;7408456;19;20015;-88
2023/06/17 10:06:30;;;;;;;0.40;0.32;;;;;;;32.49;52.73;99773.56;7426578;19;20018;-89
2023/06/17 10:08:57;;;;;;;5.47;0.50;;;;;;;23.04;82.71;99778.16;7425658;19;20010;-90
2023/06/17 10:11:27;;;;;;;3.40;0.68;;;;;;;25.09;69.43;99793.69;7401502;19;20018;-89
2023/06/17 10:13:59;;;;;;;0.67;0.30;;;;;;;19.05;100.00;99807.00;7401613;19;20006;-92
2023/06/17 10:16:28;;;;;;;2.03;0.63;;;;;;;26.29;75.76;99801.34;7397239;19;20022;-86
2023/06/17 10:18:58;;;;;;;3.10;0.30;;;;;;;19.26;100.00;99798.72;7400378;19;20050;-88
2023/06/17 10:21:26;;;;;;;;;;;;;;;17.91;100.00;99795.28;7394788;19;20019;-89
2023/06/17 10:23:54;;;;;;;1.40;0.43;;;;;;;17.81;100.00;99802.56;7396414;19;19919;-89
2023/06/17 10:26:21;;;;;;;1.23;0.60;;;;;;;21.10;100.00;99789.06;7400388;19;20007;-90
2023/06/17 10:28:53;;;;;;;1.95;0.55;;;;;;;21.66;100.00;99791.28;7397101;19;20018;-89
2023/06/17 10:31:24;;;;;;;0.73;0.50;;;;;;;19.55;100.00;99790.06;7396860;19;20017;-92
2023/06/17 10:33:55;;;;;;;0.73;0.52;;;;;;;20.58;100.00;99787.09;7397310;19;20010;-93
2023/06/17 10:36:22;;;;;;;1.10;0.30;;;;;;;18.52;100.00;99796.69;7399342;19;20015;-92
2023/06/17 10:38:56;;;;;;;3.13;0.30;;;;;;;17.78;100.00;99780.34;7399631;19;20082;-94
2023/06/17 10:41:35;;;;;;;3.22;0.40;;;;;;;20.08;100.00;99770.34;7398022;19;20028;-94
2023/06/17 10:44:33;;;;;;;1.02;0.40;;;;;;;18.78;100.00;99769.41;7396172;19;20043;-86
2023/06/17 10:46:59;;;;;;;0.93;0.50;;;;;;;19.06;100.00;99766.16;7394870;19;20461;-85
2023/06/17 10:49:42;;;;;;;0.73;0.60;;;;;;;17.69;100.00;99773.00;7393679;19;20386;-85
2023/06/17 10:52:16;;;;;;;1.73;0.60;;;;;;;18.63;100.00;99769.09;7392797;19;20346;-85
2023/06/17 10:54:55;;;;;;;2.55;0.65;;;;;;;17.76;100.00;99766.75;7393905;19;20030;-85
2023/06/17 10:57:35;;;;;;;5.38;0.80;;;;;;;17.60;100.00;99752.84;7393343;19;20078;-85
2023/06/17 11:00:08;;;;;;;6.50;1.17;;;;;;;19.47;100.00;99754.50;7398437;19;20019;-86
2023/06/17 11:02:40;;;;;;;0.47;0.10;;;;;;;17.81;100.00;99749.03;7396301;19;20019;-86
2023/06/17 11:05:08;;;;;;;1.27;0.30;;;;;;;18.00;100.00;99758.31;7393539;19;20031;-86
2023/06/17 11:07:34;;;;;;;2.13;0.70;;;;;;;17.78;100.00;99752.91;7394967;19;20339;-86
2023/06/17 11:10:01;;;;;;;2.67;1.17;;;;;;;18.27;100.00;99759.28;7398749;19;20052;-85
2023/06/17 11:12:27;;;;;;;2.45;0.30;;;;;;;18.18;100.00;99757.59;7391307;19;20022;-85
2023/06/17 11:14:54;;;;;;;1.60;0.30;;;;;;;18.81;100.00;99750.66;7394883;19;20022;-84
2023/06/17 11:17:20;;;;;;;0.65;0.20;;;;;;;20.17;100.00;99738.81;7390787;19;20018;-83
2023/06/17 11:19:47;;;;;;;4.60;0.57;;;;;;;20.79;100.00;99745.47;7394648;19;20018;-84
2023/06/17 11:22:13;;;;;;;0.73;0.35;;;;;;;20.54;100.00;99746.28;7390191;19;20133;-84
2023/06/17 11:24:39;;;;;;;2.70;0.95;;;;;;;19.41;100.00;99734.84;7391407;19;20022;-86
2023/06/17 11:27:06;;;;;;;5.15;0.82;;;;;;;19.29;100.00;99735.53;7392594;19;20039;-84
2023/06/17 11:29:32;;;;;;;0.50;0.38;;;;;;;19.97;100.00;99734.56;7394750;19;20018;-87
2023/06/17 11:32:00;;;;;;;1.35;0.22;;;;;;;26.52;100.00;99732.56;7392742;19;20015;-86
2023/06/17 11:34:31;;;;;;;0.68;0.68;;;;;;;22.58;100.00;99732.53;7391430;19;20015;-88
2023/06/17 11:37:00;;;;;;;2.67;0.68;;;;;;;21.38;100.00;99734.56;7390975;19;20018;-86